createdAt,value
2018-09-08T00:02:15.725Z,50.78
2018-09-08T00:04:41.679Z,51.43
2018-09-08T00:07:07.650Z,50.82
2018-09-08T00:09:33.610Z,51.12
2018-09-08T00:11:59.611Z,51.16
2018-09-08T00:14:25.567Z,50.89
2018-09-08T00:16:51.567Z,50.85
2018-09-08T00:19:17.531Z,50.68
2018-09-08T00:21:43.543Z,52.23
2018-09-08T00:24:09.566Z,52.21
2018-09-08T00:26:35.556Z,52.79
2018-09-08T00:29:01.531Z,52.79
2018-09-08T00:31:27.499Z,52.02
2018-09-08T00:33:53.453Z,52.54
2018-09-08T00:36:19.441Z,52.87
2018-09-08T00:38:45.420Z,53.10
2018-09-08T00:41:11.420Z,53.46
2018-09-08T00:43:37.409Z,52.33
2018-09-08T00:46:03.391Z,52.16
2018-09-08T00:48:29.390Z,52.10
2018-09-08T00:50:55.376Z,52.37
2018-09-08T00:53:21.420Z,52.21
2018-09-08T00:55:47.418Z,51.92
2018-09-08T00:58:13.888Z,53.16
2018-09-08T01:00:39.847Z,53.64
2018-09-08T01:03:05.813Z,53.48
2018-09-08T01:05:31.890Z,52.60
2018-09-08T01:07:57.851Z,52.17
2018-09-08T01:10:23.804Z,52.18
2018-09-08T01:12:49.766Z,52.45
2018-09-08T01:15:15.717Z,51.69
2018-09-08T01:17:41.709Z,51.60
2018-09-08T01:20:07.889Z,50.39
2018-09-08T01:22:33.913Z,49.97
2018-09-08T01:24:59.915Z,50.57
2018-09-08T01:27:25.945Z,51.08
2018-09-08T01:29:51.903Z,51.41
2018-09-08T01:32:17.887Z,50.27
2018-09-08T01:34:43.851Z,50.74
2018-09-08T01:37:09.830Z,49.98
2018-09-08T01:39:35.828Z,49.25
2018-09-08T01:42:01.815Z,49.26
2018-09-08T01:44:27.763Z,48.98
2018-09-08T01:46:53.737Z,48.75
2018-09-08T01:49:19.749Z,48.18
2018-09-08T01:51:45.764Z,48.45
2018-09-08T01:54:11.720Z,48.79
2018-09-08T01:56:37.726Z,47.93
2018-09-08T01:59:03.676Z,49.83
2018-09-08T02:01:29.633Z,48.59
2018-09-08T02:03:55.580Z,49.06
2018-09-08T02:06:21.552Z,48.99
2018-09-08T02:08:47.551Z,48.12
2018-09-08T02:11:13.513Z,49.21
2018-09-08T02:13:39.500Z,48.82
2018-09-08T02:16:05.474Z,49.24
2018-09-08T02:18:31.444Z,50.40
2018-09-08T02:20:57.463Z,50.43
2018-09-08T02:23:23.459Z,50.29
2018-09-08T02:25:49.449Z,51.45
2018-09-08T02:28:15.432Z,51.35
2018-09-08T02:30:41.422Z,49.86
2018-09-08T02:33:07.377Z,50.68
2018-09-08T02:35:33.375Z,50.18
2018-09-08T02:37:59.354Z,50.26
2018-09-08T02:40:25.297Z,50.39
2018-09-08T02:42:51.272Z,50.75
2018-09-08T02:45:17.242Z,49.85
2018-09-08T02:47:43.265Z,50.40
2018-09-08T02:50:09.258Z,50.05
2018-09-08T02:52:35.249Z,50.79
2018-09-08T02:55:01.254Z,49.84
2018-09-08T02:57:27.226Z,49.76
2018-09-08T02:59:53.168Z,50.33
2018-09-08T03:02:19.120Z,50.41
2018-09-08T03:04:45.141Z,49.32
2018-09-08T03:07:11.136Z,49.08
2018-09-08T03:09:37.137Z,50.10
2018-09-08T03:12:03.135Z,48.68
2018-09-08T03:14:29.131Z,48.90
2018-09-08T03:16:55.070Z,47.81
2018-09-08T03:19:21.078Z,48.48
2018-09-08T03:21:47.062Z,48.19
2018-09-08T03:24:13.044Z,48.41
2018-09-08T03:26:39.005Z,49.02
2018-09-08T03:29:05.008Z,48.89
2018-09-08T03:31:30.964Z,49.93
2018-09-08T03:33:56.944Z,49.69
2018-09-08T03:36:22.935Z,49.97
2018-09-08T03:38:48.929Z,49.78
2018-09-08T03:41:14.884Z,49.90
2018-09-08T03:43:40.864Z,52.04
2018-09-08T03:46:06.855Z,51.68
2018-09-08T03:48:32.857Z,52.04
2018-09-08T03:51:02.314Z,52.10
2018-09-08T03:53:28.293Z,51.20
2018-09-08T03:55:54.465Z,50.86
2018-09-08T03:58:20.492Z,51.53
2018-09-08T04:00:46.482Z,51.23
2018-09-08T04:03:12.473Z,51.47
2018-09-08T04:05:43.112Z,51.65
2018-09-08T04:08:09.043Z,51.63
2018-09-08T04:10:35.050Z,50.15
2018-09-08T04:13:01.047Z,48.58
2018-09-08T04:15:27.072Z,47.63
2018-09-08T04:17:53.061Z,47.91
2018-09-08T04:20:20.065Z,48.18
2018-09-08T04:22:46.027Z,48.07
2018-09-08T04:25:11.990Z,48.03
2018-09-08T04:27:37.970Z,47.69
2018-09-08T04:30:03.994Z,47.46
2018-09-08T04:32:29.985Z,47.43
2018-09-08T04:34:55.969Z,48.70
2018-09-08T04:37:21.965Z,48.67
2018-09-08T04:39:47.982Z,47.45
2018-09-08T04:42:13.982Z,47.96
2018-09-08T04:44:40.181Z,47.24
2018-09-08T04:47:06.188Z,47.46
2018-09-08T04:49:32.169Z,48.08
2018-09-08T04:51:58.163Z,48.05
2018-09-08T04:54:24.136Z,47.54
2018-09-08T04:56:50.139Z,47.05
2018-09-08T04:59:16.117Z,47.59
2018-09-08T05:01:43.075Z,48.25
2018-09-08T05:04:09.076Z,48.83
2018-09-08T05:06:35.085Z,49.76
2018-09-08T05:09:01.058Z,48.98
2018-09-08T05:11:27.093Z,47.92
2018-09-08T05:13:53.058Z,47.56
2018-09-08T05:16:19.054Z,48.35
2018-09-08T05:18:45.017Z,48.56
2018-09-08T05:21:10.990Z,48.04
2018-09-08T05:23:37.004Z,49.29
2018-09-08T05:26:02.981Z,49.09
2018-09-08T05:28:29.068Z,47.49
2018-09-08T05:30:55.136Z,47.21
2018-09-08T05:33:21.121Z,47.11
2018-09-08T05:35:47.111Z,47.21
2018-09-08T05:38:13.091Z,46.29
2018-09-08T05:40:39.157Z,46.48
2018-09-08T05:43:05.204Z,46.09
2018-09-08T05:45:31.167Z,47.66
2018-09-08T05:47:57.202Z,46.07
2018-09-08T05:50:23.194Z,46.00
2018-09-08T05:52:49.263Z,45.67
2018-09-08T05:55:15.274Z,44.32
2018-09-08T05:57:41.260Z,44.37
2018-09-08T06:00:07.241Z,44.45
2018-09-08T06:02:33.212Z,44.26
2018-09-08T06:04:59.925Z,43.55
2018-09-08T06:07:25.878Z,43.47
2018-09-08T06:09:51.853Z,43.18
2018-09-08T06:12:17.877Z,43.79
2018-09-08T06:14:43.852Z,44.16
2018-09-08T06:17:11.619Z,45.69
2018-09-08T06:19:37.622Z,44.69
2018-09-08T06:22:03.564Z,45.44
2018-09-08T06:24:29.654Z,44.77
2018-09-08T06:26:55.645Z,44.67
2018-09-08T06:29:21.762Z,44.06
2018-09-08T06:34:21.499Z,43.50
2018-09-08T06:36:47.489Z,42.25
2018-09-08T06:41:45.576Z,41.57
2018-09-08T06:46:43.505Z,40.74
2018-09-08T06:49:09.588Z,41.08
2018-09-08T06:51:35.543Z,40.72
2018-09-08T06:56:34.827Z,39.39
2018-09-08T06:59:00.780Z,40.32
2018-09-08T07:01:26.819Z,39.59
2018-09-08T07:03:52.805Z,40.11
2018-09-08T07:06:18.861Z,39.04
2018-09-08T07:08:45.025Z,39.10
2018-09-08T07:11:11.129Z,38.96
2018-09-08T07:13:37.128Z,39.28
2018-09-08T07:16:03.117Z,39.80
2018-09-08T07:18:29.106Z,39.63
2018-09-08T07:20:55.069Z,40.19
2018-09-08T07:23:21.121Z,39.04
2018-09-08T07:25:47.144Z,38.88
2018-09-08T07:28:13.177Z,39.05
2018-09-08T07:30:39.172Z,39.34
2018-09-08T07:33:05.187Z,38.60
2018-09-08T07:35:31.180Z,39.48
2018-09-08T07:37:57.170Z,38.76
2018-09-08T07:40:23.208Z,38.76
2018-09-08T07:42:49.190Z,38.78
2018-09-08T07:45:17.243Z,38.71
2018-09-08T07:50:19.406Z,38.65
2018-09-08T07:52:45.442Z,38.74
2018-09-08T07:55:11.442Z,39.31
2018-09-08T07:57:37.410Z,38.69
2018-09-08T08:00:03.415Z,37.25
2018-09-08T08:02:29.572Z,37.74
2018-09-08T08:04:55.579Z,37.58
2018-09-08T08:07:21.613Z,37.39
2018-09-08T08:09:47.657Z,37.36
2018-09-08T08:12:13.673Z,35.03
2018-09-08T08:14:39.762Z,35.52
2018-09-08T08:17:05.742Z,36.78
2018-09-08T08:19:31.762Z,35.69
2018-09-08T08:21:57.830Z,37.33
2018-09-08T08:24:23.856Z,37.94
2018-09-08T08:26:49.928Z,36.97
2018-09-08T08:29:16.188Z,35.89
2018-09-08T08:31:42.173Z,37.02
2018-09-08T08:34:08.677Z,35.69
2018-09-08T08:36:34.644Z,36.01
2018-09-08T08:39:00.712Z,36.70
2018-09-08T08:41:26.706Z,36.27
2018-09-08T08:43:52.815Z,36.26
2018-09-08T08:46:18.857Z,34.74
2018-09-08T08:48:44.881Z,35.83
2018-09-08T08:51:10.859Z,36.32
2018-09-08T08:53:36.810Z,35.30
2018-09-08T08:56:02.812Z,33.68
2018-09-08T08:58:29.110Z,33.41
2018-09-08T09:00:55.095Z,33.77
2018-09-08T09:03:21.067Z,33.47
2018-09-08T09:05:47.053Z,34.28
2018-09-08T09:08:13.008Z,35.61
2018-09-08T09:10:38.970Z,35.93
2018-09-08T09:13:05.061Z,34.83
2018-09-08T09:15:31.285Z,35.16
2018-09-08T09:17:56.925Z,34.35
2018-09-08T09:20:22.923Z,34.61
2018-09-08T09:22:48.899Z,33.58
2018-09-08T09:25:14.883Z,34.20
2018-09-08T09:27:40.870Z,33.79
2018-09-08T09:30:06.853Z,33.10
2018-09-08T09:32:32.833Z,33.31
2018-09-08T09:34:58.835Z,34.22
2018-09-08T09:37:24.858Z,35.75
2018-09-08T09:39:50.840Z,36.36
2018-09-08T09:42:16.864Z,35.82
2018-09-08T09:44:43.119Z,35.15
2018-09-08T09:47:09.112Z,35.42
2018-09-08T09:49:35.084Z,34.03
2018-09-08T09:52:01.335Z,34.54
2018-09-08T09:54:27.567Z,34.24
2018-09-08T09:56:53.892Z,34.12
2018-09-08T09:59:20.146Z,34.44
2018-09-08T10:01:46.458Z,34.31
2018-09-08T10:04:12.526Z,33.99
2018-09-08T10:06:38.599Z,33.93
2018-09-08T10:09:04.533Z,35.89
2018-09-08T10:11:30.621Z,33.51
2018-09-08T10:13:56.628Z,34.21
2018-09-08T10:16:22.811Z,33.79
2018-09-08T10:18:48.856Z,32.63
2018-09-08T10:21:14.837Z,32.64
2018-09-08T10:23:40.815Z,32.75
2018-09-08T10:26:07.799Z,32.67
2018-09-08T10:28:33.806Z,33.29
2018-09-08T10:30:59.764Z,33.03
2018-09-08T10:33:25.729Z,33.20
2018-09-08T10:35:51.689Z,32.20
2018-09-08T10:38:17.673Z,32.45
2018-09-08T10:40:43.637Z,32.66
2018-09-08T10:43:09.606Z,32.80
2018-09-08T10:45:35.600Z,33.69
2018-09-08T10:48:01.626Z,33.23
2018-09-08T10:50:27.606Z,33.02
2018-09-08T10:52:53.594Z,32.44
2018-09-08T10:55:19.593Z,33.25
2018-09-08T10:57:45.638Z,32.83
2018-09-08T11:00:11.625Z,31.97
2018-09-08T11:02:37.773Z,32.60
2018-09-08T11:05:03.600Z,32.05
2018-09-08T11:07:29.556Z,32.66
2018-09-08T11:09:55.561Z,32.09
2018-09-08T11:12:21.577Z,33.62
2018-09-08T11:14:47.558Z,33.17
2018-09-08T11:17:13.563Z,32.70
2018-09-08T11:19:39.563Z,33.83
2018-09-08T11:22:05.622Z,32.47
2018-09-08T11:24:31.659Z,32.45
2018-09-08T11:26:57.672Z,32.68
2018-09-08T11:29:23.655Z,32.90
2018-09-08T11:31:49.662Z,32.20
2018-09-08T11:34:15.651Z,30.50
2018-09-08T11:36:41.615Z,31.22
2018-09-08T11:39:07.627Z,32.63
2018-09-08T11:41:33.584Z,32.87
2018-09-08T11:43:59.550Z,32.57
2018-09-08T11:46:25.535Z,31.22
2018-09-08T11:48:51.585Z,32.28
2018-09-08T11:51:17.522Z,32.47
2018-09-08T11:53:43.485Z,32.23
2018-09-08T11:56:09.454Z,32.21
2018-09-08T11:58:35.486Z,32.12
2018-09-08T12:01:01.430Z,31.33
2018-09-08T12:03:27.421Z,31.33
2018-09-08T12:05:53.414Z,32.86
2018-09-08T12:08:19.418Z,32.71
2018-09-08T12:10:45.496Z,31.37
2018-09-08T12:13:11.456Z,31.60
2018-09-08T12:15:37.443Z,32.76
2018-09-08T12:18:03.473Z,30.96
2018-09-08T12:20:29.475Z,31.08
2018-09-08T12:22:55.440Z,31.25
2018-09-08T12:25:21.398Z,31.00
2018-09-08T12:27:47.418Z,29.79
2018-09-08T12:30:13.412Z,30.73
2018-09-08T12:32:39.357Z,29.83
2018-09-08T12:35:05.308Z,28.97
2018-09-08T12:37:31.295Z,29.69
2018-09-08T12:39:57.294Z,30.60
2018-09-08T12:42:23.246Z,30.87
2018-09-08T12:44:49.246Z,31.69
2018-09-08T12:47:15.257Z,31.24
2018-09-08T12:49:43.169Z,30.73
2018-09-08T12:52:10.012Z,32.11
2018-09-08T12:54:36.000Z,32.39
2018-09-08T12:57:02.001Z,31.63
2018-09-08T12:59:31.767Z,32.13
2018-09-08T13:01:57.698Z,30.44
2018-09-08T13:04:23.711Z,31.13
2018-09-08T13:06:49.666Z,29.86
2018-09-08T13:09:15.653Z,30.22
2018-09-08T13:11:41.639Z,30.25
2018-09-08T13:14:07.655Z,30.53
2018-09-08T13:16:33.617Z,32.11
2018-09-08T13:18:59.592Z,29.66
2018-09-08T13:21:25.598Z,28.57
2018-09-08T13:23:51.619Z,31.37
2018-09-08T13:26:17.585Z,30.36
2018-09-08T13:28:43.652Z,30.04
2018-09-08T13:31:09.610Z,31.09
2018-09-08T13:33:35.577Z,31.48
2018-09-08T13:36:01.527Z,29.73
2018-09-08T13:38:27.495Z,31.21
2018-09-08T13:40:53.449Z,31.35
2018-09-08T13:43:19.468Z,30.54
2018-09-08T13:45:45.433Z,29.77
2018-09-08T13:48:11.396Z,31.12
2018-09-08T13:50:41.198Z,30.82
2018-09-08T13:53:07.187Z,31.20
2018-09-08T13:55:33.183Z,30.61
2018-09-08T13:57:59.253Z,31.05
2018-09-08T14:00:26.024Z,30.62
2018-09-08T14:02:52.001Z,29.77
2018-09-08T14:05:19.125Z,31.13
2018-09-08T14:07:45.175Z,29.35
2018-09-08T14:12:48.093Z,30.63
2018-09-08T14:15:14.174Z,31.00
2018-09-08T14:17:40.197Z,30.50
2018-09-08T14:20:06.229Z,29.71
2018-09-08T14:22:32.225Z,30.30
2018-09-08T14:24:58.194Z,30.66
2018-09-08T14:27:24.186Z,30.91
2018-09-08T14:29:50.181Z,29.68
2018-09-08T14:32:16.136Z,30.40
2018-09-08T14:34:42.088Z,30.09
2018-09-08T14:37:08.068Z,29.10
2018-09-08T14:39:34.066Z,30.65
2018-09-08T14:42:00.032Z,29.07
2018-09-08T14:44:25.993Z,30.47
2018-09-08T14:46:51.970Z,30.86
2018-09-08T14:49:17.932Z,30.48
2018-09-08T14:51:43.880Z,31.18
2018-09-08T14:54:09.911Z,30.92
2018-09-08T14:56:35.934Z,31.19
2018-09-08T14:59:01.909Z,29.87
2018-09-08T15:01:27.895Z,30.63
2018-09-08T15:03:53.923Z,30.35
2018-09-08T15:06:19.906Z,30.43
2018-09-08T15:08:45.869Z,31.46
2018-09-08T15:11:11.830Z,31.10
2018-09-08T15:13:37.813Z,32.27
2018-09-08T15:16:03.793Z,30.01
2018-09-08T15:18:29.748Z,30.97
2018-09-08T15:20:55.718Z,31.65
2018-09-08T15:23:21.714Z,31.30
2018-09-08T15:25:47.722Z,31.37
2018-09-08T15:28:13.691Z,29.04
2018-09-08T15:30:39.991Z,30.88
2018-09-08T15:33:05.972Z,30.69
2018-09-08T15:35:31.910Z,29.83
2018-09-08T15:37:58.056Z,30.14
2018-09-08T15:40:24.062Z,30.98
2018-09-08T15:42:50.066Z,30.82
2018-09-08T15:45:16.074Z,30.51
2018-09-08T15:47:42.017Z,30.54
2018-09-08T15:50:08.083Z,31.73
2018-09-08T15:52:34.111Z,29.63
2018-09-08T15:55:00.146Z,30.10
2018-09-08T15:57:26.240Z,29.87
2018-09-08T15:59:52.286Z,29.02
2018-09-08T16:02:18.313Z,29.00
2018-09-08T16:04:44.274Z,29.25
2018-09-08T16:07:10.253Z,29.23
2018-09-08T16:09:36.212Z,28.47
2018-09-08T16:12:02.207Z,29.12
2018-09-08T16:14:28.257Z,29.46
2018-09-08T16:16:54.147Z,28.76
2018-09-08T16:19:20.189Z,28.48
2018-09-08T16:21:46.193Z,29.03
2018-09-08T16:24:12.228Z,29.04
2018-09-08T16:26:38.235Z,27.85
2018-09-08T16:29:04.228Z,28.65
2018-09-08T16:31:30.218Z,28.87
2018-09-08T16:33:56.206Z,28.28
2018-09-08T16:36:22.177Z,28.45
2018-09-08T16:38:48.203Z,29.35
2018-09-08T16:41:14.210Z,28.09
2018-09-08T16:43:40.204Z,29.05
2018-09-08T16:46:06.158Z,28.83
2018-09-08T16:48:32.101Z,28.32
2018-09-08T16:50:58.121Z,28.45
2018-09-08T16:53:24.175Z,28.58
2018-09-08T16:55:50.228Z,28.61
2018-09-08T16:58:16.240Z,27.84
2018-09-08T17:00:42.195Z,28.56
2018-09-08T17:03:08.162Z,28.64
2018-09-08T17:05:34.220Z,27.83
2018-09-08T17:08:00.162Z,28.03
2018-09-08T17:10:26.188Z,28.92
2018-09-08T17:12:52.180Z,28.87
2018-09-08T17:15:18.164Z,28.83
2018-09-08T17:17:44.166Z,30.63
2018-09-08T17:20:10.137Z,29.69
2018-09-08T17:22:36.157Z,30.82
2018-09-08T17:25:02.198Z,29.93
2018-09-08T17:27:28.238Z,30.23
2018-09-08T17:29:54.213Z,31.12
2018-09-08T17:32:20.221Z,31.30
2018-09-08T17:34:46.145Z,31.67
2018-09-08T17:37:12.093Z,32.12
2018-09-08T17:39:38.106Z,31.75
2018-09-08T17:42:04.144Z,31.83
2018-09-08T17:44:30.119Z,32.86
2018-09-08T17:46:56.107Z,33.20
2018-09-08T17:49:22.124Z,34.43
2018-09-08T17:51:48.125Z,33.48
2018-09-08T17:54:14.106Z,33.63
2018-09-08T17:56:40.130Z,35.63
2018-09-08T17:59:06.096Z,35.61
2018-09-08T18:01:32.075Z,35.00
2018-09-08T18:03:58.066Z,34.65
2018-09-08T18:06:24.009Z,36.00
2018-09-08T18:08:49.962Z,35.63
2018-09-08T18:21:26.162Z,34.69
2018-09-08T18:23:52.151Z,35.18
2018-09-08T18:26:18.100Z,34.26
2018-09-08T18:28:44.089Z,34.01
2018-09-08T18:31:10.067Z,34.92
2018-09-08T18:33:36.031Z,34.55
2018-09-08T18:36:02.026Z,35.37
2018-09-08T18:38:28.112Z,34.37
2018-09-08T18:40:54.059Z,34.53
2018-09-08T18:43:20.033Z,34.03
2018-09-08T18:45:48.212Z,34.63
2018-09-08T18:48:14.292Z,34.53
2018-09-08T18:50:40.321Z,35.83
2018-09-08T18:53:06.353Z,35.22
2018-09-08T18:55:32.453Z,34.12
2018-09-08T18:57:58.422Z,35.59
2018-09-08T19:05:31.903Z,35.00
2018-09-08T19:08:02.434Z,35.25
2018-09-08T19:10:28.409Z,35.27
2018-09-08T19:12:54.410Z,34.80
2018-09-08T19:15:20.402Z,35.00
2018-09-08T19:17:48.704Z,34.77
2018-09-08T19:20:16.783Z,35.15
2018-09-08T19:22:42.835Z,35.75
2018-09-08T19:25:09.497Z,35.91
2018-09-08T19:30:10.283Z,36.11
2018-09-08T19:32:36.300Z,35.56
2018-09-08T19:35:02.356Z,36.32
2018-09-08T19:37:28.350Z,36.14
2018-09-08T19:39:54.373Z,35.49
2018-09-08T19:42:20.438Z,35.98
2018-09-08T19:44:46.450Z,35.80
2018-09-08T19:47:12.541Z,36.34
2018-09-08T19:49:38.542Z,36.26
2018-09-08T19:52:04.601Z,36.54
2018-09-08T19:54:30.617Z,36.97
2018-09-08T19:56:56.597Z,36.37
2018-09-08T19:59:22.617Z,36.65
2018-09-08T20:01:48.696Z,36.89
2018-09-08T20:04:14.688Z,36.60
2018-09-08T20:06:40.688Z,36.53
2018-09-08T20:09:06.683Z,36.61
2018-09-08T20:11:32.689Z,36.57
2018-09-08T20:13:58.736Z,36.58
2018-09-08T20:16:24.750Z,36.93
2018-09-08T20:21:24.238Z,36.58
2018-09-08T20:23:50.265Z,37.01
2018-09-08T20:26:16.269Z,37.16
2018-09-08T20:28:42.315Z,36.77
2018-09-08T20:31:08.283Z,36.07
2018-09-08T20:33:34.289Z,37.11
2018-09-08T20:36:00.293Z,37.21
2018-09-08T20:38:26.326Z,37.24
2018-09-08T20:40:52.343Z,36.85
2018-09-08T20:43:19.392Z,36.32
2018-09-08T20:45:45.565Z,37.58
2018-09-08T20:48:11.714Z,36.73
2018-09-08T20:50:37.839Z,38.19
2018-09-08T20:53:03.966Z,38.05
2018-09-08T20:55:30.024Z,37.90
2018-09-08T20:57:56.251Z,37.00
2018-09-08T21:00:22.323Z,37.85
2018-09-08T21:02:48.416Z,36.94
2018-09-08T21:05:14.505Z,37.28
2018-09-08T21:07:40.663Z,36.97
2018-09-08T21:10:06.780Z,37.38
2018-09-08T21:12:32.889Z,37.48
2018-09-08T21:14:58.992Z,38.32
2018-09-08T21:17:25.085Z,37.55
2018-09-08T21:19:51.160Z,37.88
2018-09-08T21:22:17.314Z,38.88
2018-09-08T21:24:43.517Z,39.74
2018-09-08T21:27:09.613Z,40.01
2018-09-08T21:29:35.705Z,39.02
2018-09-08T21:32:01.781Z,39.34
2018-09-08T21:34:27.895Z,38.81
2018-09-08T21:36:54.009Z,38.94
2018-09-08T21:39:20.122Z,39.18
2018-09-08T21:41:46.179Z,39.23
2018-09-08T21:44:12.222Z,39.89
2018-09-08T21:46:38.386Z,39.96
2018-09-08T21:49:04.497Z,40.24
2018-09-08T21:51:30.593Z,40.43
2018-09-08T21:53:56.703Z,40.33
2018-09-08T21:56:25.996Z,40.76
2018-09-08T21:58:52.130Z,41.03
2018-09-08T22:01:18.228Z,41.22
2018-09-08T22:03:44.363Z,40.01
2018-09-08T22:06:10.510Z,40.17
2018-09-08T22:08:36.581Z,41.33
2018-09-08T22:11:02.735Z,41.12
2018-09-08T22:13:28.831Z,40.62
2018-09-08T22:15:54.978Z,41.33
2018-09-08T22:18:21.002Z,42.86
2018-09-08T22:20:47.090Z,41.10
2018-09-08T22:23:13.161Z,40.68
2018-09-08T22:25:39.219Z,41.18
2018-09-08T22:28:05.280Z,41.89
2018-09-08T22:30:31.373Z,41.56
2018-09-08T22:32:57.534Z,41.33
2018-09-08T22:35:23.540Z,41.31
2018-09-08T22:37:49.651Z,41.85
2018-09-08T22:40:15.696Z,41.00
2018-09-08T22:42:41.758Z,40.69
2018-09-08T22:45:07.861Z,41.40
2018-09-08T22:47:33.900Z,41.48
2018-09-08T22:49:59.934Z,41.78
2018-09-08T22:52:25.961Z,41.08
2018-09-08T22:54:52.052Z,41.24
2018-09-08T22:57:18.143Z,42.00
2018-09-08T22:59:44.299Z,40.91
2018-09-08T23:02:10.367Z,41.48
2018-09-08T23:04:36.410Z,41.75
2018-09-08T23:07:02.438Z,42.44
2018-09-08T23:12:00.346Z,42.73
2018-09-08T23:14:26.420Z,42.85
2018-09-08T23:16:52.490Z,42.28
2018-09-08T23:19:18.572Z,41.94
2018-09-08T23:21:44.639Z,41.19
2018-09-08T23:24:10.747Z,41.70
2018-09-08T23:26:36.828Z,42.65
2018-09-08T23:29:02.930Z,42.82
2018-09-08T23:31:28.959Z,42.91
2018-09-08T23:33:54.986Z,44.98
2018-09-08T23:36:21.091Z,43.73
2018-09-08T23:38:47.107Z,43.99
2018-09-08T23:41:13.161Z,43.49
2018-09-08T23:43:39.181Z,43.72
2018-09-08T23:46:05.265Z,42.67
2018-09-08T23:48:31.348Z,43.11
2018-09-08T23:50:57.422Z,43.40
2018-09-08T23:53:23.579Z,42.57
2018-09-08T23:55:49.623Z,42.96
2018-09-08T23:58:15.647Z,42.07
